sensor_id;sensor_type;location;lat;lon;timestamp;P1;durP1;ratioP1;P2;durP2;ratioP2
26600;SDS011;14241;49.260;10.496;2022-08-19T00:01:36;24.98;;;20.30;;
26600;SDS011;14241;49.260;10.496;2022-08-19T00:04:03;26.58;;;20.88;;
26600;SDS011;14241;49.260;10.496;2022-08-19T00:06:29;26.13;;;20.88;;
26600;SDS011;14241;49.260;10.496;2022-08-19T00:08:54;24.80;;;20.13;;
26600;SDS011;14241;49.260;10.496;2022-08-19T00:11:20;25.95;;;21.17;;
26600;SDS011;14241;49.260;10.496;2022-08-19T00:13:45;25.23;;;21.55;;
26600;SDS011;14241;49.260;10.496;2022-08-19T00:16:13;24.88;;;20.75;;
26600;SDS011;14241;49.260;10.496;2022-08-19T00:18:38;24.40;;;20.67;;
26600;SDS011;14241;49.260;10.496;2022-08-19T00:21:04;25.03;;;21.53;;
26600;SDS011;14241;49.260;10.496;2022-08-19T00:23:32;24.75;;;21.55;;
26600;SDS011;14241;49.260;10.496;2022-08-19T00:25:59;26.08;;;21.60;;
26600;SDS011;14241;49.260;10.496;2022-08-19T00:28:25;26.70;;;21.52;;
26600;SDS011;14241;49.260;10.496;2022-08-19T00:30:50;25.80;;;21.27;;
26600;SDS011;14241;49.260;10.496;2022-08-19T00:33:16;25.08;;;21.08;;
26600;SDS011;14241;49.260;10.496;2022-08-19T00:35:42;27.85;;;21.55;;
26600;SDS011;14241;49.260;10.496;2022-08-19T00:38:07;28.80;;;22.03;;
26600;SDS011;14241;49.260;10.496;2022-08-19T00:40:32;29.20;;;22.40;;
26600;SDS011;14241;49.260;10.496;2022-08-19T00:42:58;23.90;;;19.38;;
26600;SDS011;14241;49.260;10.496;2022-08-19T00:45:25;25.30;;;21.20;;
26600;SDS011;14241;49.260;10.496;2022-08-19T00:47:51;26.70;;;21.50;;
26600;SDS011;14241;49.260;10.496;2022-08-19T00:50:17;25.48;;;20.15;;
26600;SDS011;14241;49.260;10.496;2022-08-19T00:52:44;24.08;;;20.50;;
26600;SDS011;14241;49.260;10.496;2022-08-19T00:55:12;25.05;;;19.00;;
26600;SDS011;14241;49.260;10.496;2022-08-19T00:57:40;23.00;;;19.77;;
26600;SDS011;14241;49.260;10.496;2022-08-19T01:00:08;26.88;;;20.38;;
26600;SDS011;14241;49.260;10.496;2022-08-19T01:02:36;26.88;;;21.13;;
26600;SDS011;14241;49.260;10.496;2022-08-19T01:05:02;24.42;;;21.08;;
26600;SDS011;14241;49.260;10.496;2022-08-19T01:07:28;27.75;;;21.40;;
26600;SDS011;14241;49.260;10.496;2022-08-19T01:09:53;24.67;;;20.77;;
26600;SDS011;14241;49.260;10.496;2022-08-19T01:12:18;28.13;;;22.10;;
26600;SDS011;14241;49.260;10.496;2022-08-19T01:14:44;27.85;;;21.45;;
26600;SDS011;14241;49.260;10.496;2022-08-19T01:17:10;28.38;;;20.73;;
26600;SDS011;14241;49.260;10.496;2022-08-19T01:19:38;25.60;;;21.17;;
26600;SDS011;14241;49.260;10.496;2022-08-19T01:22:10;24.50;;;20.15;;
26600;SDS011;14241;49.260;10.496;2022-08-19T01:24:36;25.75;;;21.13;;
26600;SDS011;14241;49.260;10.496;2022-08-19T01:27:04;24.33;;;19.97;;
26600;SDS011;14241;49.260;10.496;2022-08-19T01:29:29;25.13;;;20.85;;
26600;SDS011;14241;49.260;10.496;2022-08-19T01:31:54;25.97;;;21.40;;
26600;SDS011;14241;49.260;10.496;2022-08-19T01:34:19;26.20;;;21.33;;
26600;SDS011;14241;49.260;10.496;2022-08-19T01:36:46;26.83;;;21.25;;
26600;SDS011;14241;49.260;10.496;2022-08-19T01:39:13;26.75;;;21.35;;
26600;SDS011;14241;49.260;10.496;2022-08-19T01:41:39;27.52;;;21.60;;
26600;SDS011;14241;49.260;10.496;2022-08-19T01:44:05;26.38;;;21.70;;
26600;SDS011;14241;49.260;10.496;2022-08-19T01:46:31;27.27;;;21.23;;
26600;SDS011;14241;49.260;10.496;2022-08-19T01:48:57;26.10;;;20.98;;
26600;SDS011;14241;49.260;10.496;2022-08-19T01:51:22;24.73;;;19.77;;
26600;SDS011;14241;49.260;10.496;2022-08-19T01:53:48;28.85;;;20.23;;
26600;SDS011;14241;49.260;10.496;2022-08-19T01:56:13;24.83;;;20.17;;
26600;SDS011;14241;49.260;10.496;2022-08-19T01:58:40;25.85;;;21.55;;
26600;SDS011;14241;49.260;10.496;2022-08-19T02:01:07;25.42;;;20.23;;
26600;SDS011;14241;49.260;10.496;2022-08-19T02:03:32;23.90;;;19.70;;
26600;SDS011;14241;49.260;10.496;2022-08-19T02:06:00;25.67;;;20.15;;
26600;SDS011;14241;49.260;10.496;2022-08-19T02:08:26;29.05;;;21.55;;
26600;SDS011;14241;49.260;10.496;2022-08-19T02:10:52;25.33;;;20.35;;
26600;SDS011;14241;49.260;10.496;2022-08-19T02:13:17;26.65;;;22.80;;
26600;SDS011;14241;49.260;10.496;2022-08-19T02:15:43;29.17;;;21.45;;
26600;SDS011;14241;49.260;10.496;2022-08-19T02:18:08;25.08;;;21.63;;
26600;SDS011;14241;49.260;10.496;2022-08-19T02:20:33;31.02;;;22.38;;
26600;SDS011;14241;49.260;10.496;2022-08-19T02:22:59;26.52;;;21.52;;
26600;SDS011;14241;49.260;10.496;2022-08-19T02:25:26;28.08;;;21.25;;
26600;SDS011;14241;49.260;10.496;2022-08-19T02:27:51;25.90;;;21.63;;
26600;SDS011;14241;49.260;10.496;2022-08-19T02:30:17;28.23;;;22.67;;
26600;SDS011;14241;49.260;10.496;2022-08-19T02:32:42;26.40;;;22.77;;
26600;SDS011;14241;49.260;10.496;2022-08-19T02:35:08;28.88;;;21.42;;
26600;SDS011;14241;49.260;10.496;2022-08-19T02:37:33;28.30;;;22.35;;
26600;SDS011;14241;49.260;10.496;2022-08-19T02:40:17;29.70;;;22.50;;
26600;SDS011;14241;49.260;10.496;2022-08-19T02:42:43;27.13;;;22.00;;
26600;SDS011;14241;49.260;10.496;2022-08-19T02:45:08;26.13;;;21.50;;
26600;SDS011;14241;49.260;10.496;2022-08-19T02:47:34;27.27;;;22.05;;
26600;SDS011;14241;49.260;10.496;2022-08-19T02:50:00;26.57;;;22.03;;
26600;SDS011;14241;49.260;10.496;2022-08-19T02:52:26;26.17;;;21.42;;
26600;SDS011;14241;49.260;10.496;2022-08-19T02:54:52;29.25;;;21.42;;
26600;SDS011;14241;49.260;10.496;2022-08-19T02:57:17;28.40;;;22.75;;
26600;SDS011;14241;49.260;10.496;2022-08-19T02:59:42;27.35;;;21.55;;
26600;SDS011;14241;49.260;10.496;2022-08-19T03:02:08;26.00;;;21.20;;
26600;SDS011;14241;49.260;10.496;2022-08-19T03:04:33;29.27;;;21.77;;
26600;SDS011;14241;49.260;10.496;2022-08-19T03:06:58;26.42;;;21.10;;
26600;SDS011;14241;49.260;10.496;2022-08-19T03:09:23;31.57;;;21.50;;
26600;SDS011;14241;49.260;10.496;2022-08-19T03:11:49;28.10;;;22.40;;
26600;SDS011;14241;49.260;10.496;2022-08-19T03:14:15;29.02;;;22.10;;
26600;SDS011;14241;49.260;10.496;2022-08-19T03:16:42;27.05;;;22.85;;
26600;SDS011;14241;49.260;10.496;2022-08-19T03:19:07;27.95;;;22.35;;
26600;SDS011;14241;49.260;10.496;2022-08-19T03:21:33;29.58;;;21.85;;
26600;SDS011;14241;49.260;10.496;2022-08-19T03:24:00;29.55;;;23.02;;
26600;SDS011;14241;49.260;10.496;2022-08-19T03:26:25;30.70;;;22.80;;
26600;SDS011;14241;49.260;10.496;2022-08-19T03:28:51;29.70;;;23.25;;
26600;SDS011;14241;49.260;10.496;2022-08-19T03:31:17;28.65;;;23.75;;
26600;SDS011;14241;49.260;10.496;2022-08-19T03:33:43;29.58;;;23.92;;
26600;SDS011;14241;49.260;10.496;2022-08-19T03:36:12;32.78;;;25.10;;
26600;SDS011;14241;49.260;10.496;2022-08-19T03:38:39;31.83;;;24.02;;
26600;SDS011;14241;49.260;10.496;2022-08-19T03:41:06;32.30;;;24.15;;
26600;SDS011;14241;49.260;10.496;2022-08-19T03:43:33;28.02;;;23.35;;
26600;SDS011;14241;49.260;10.496;2022-08-19T03:46:04;33.45;;;24.67;;
26600;SDS011;14241;49.260;10.496;2022-08-19T03:48:30;31.17;;;25.15;;
26600;SDS011;14241;49.260;10.496;2022-08-19T03:50:56;29.58;;;23.83;;
26600;SDS011;14241;49.260;10.496;2022-08-19T03:53:22;33.45;;;24.85;;
26600;SDS011;14241;49.260;10.496;2022-08-19T03:55:48;30.80;;;23.60;;
26600;SDS011;14241;49.260;10.496;2022-08-19T03:58:13;33.63;;;24.63;;
26600;SDS011;14241;49.260;10.496;2022-08-19T04:00:41;29.53;;;22.77;;
26600;SDS011;14241;49.260;10.496;2022-08-19T04:03:06;30.92;;;22.42;;
26600;SDS011;14241;49.260;10.496;2022-08-19T04:05:31;33.30;;;24.90;;
26600;SDS011;14241;49.260;10.496;2022-08-19T04:07:57;31.03;;;24.33;;
26600;SDS011;14241;49.260;10.496;2022-08-19T04:10:24;28.52;;;23.75;;
26600;SDS011;14241;49.260;10.496;2022-08-19T04:12:49;29.65;;;23.25;;
26600;SDS011;14241;49.260;10.496;2022-08-19T04:15:14;29.67;;;23.27;;
26600;SDS011;14241;49.260;10.496;2022-08-19T04:17:40;32.22;;;24.30;;
26600;SDS011;14241;49.260;10.496;2022-08-19T04:20:05;32.33;;;25.08;;
26600;SDS011;14241;49.260;10.496;2022-08-19T04:22:31;28.52;;;23.80;;
26600;SDS011;14241;49.260;10.496;2022-08-19T04:24:56;29.63;;;24.03;;
26600;SDS011;14241;49.260;10.496;2022-08-19T04:27:21;32.83;;;24.47;;
26600;SDS011;14241;49.260;10.496;2022-08-19T04:29:46;34.03;;;24.65;;
26600;SDS011;14241;49.260;10.496;2022-08-19T04:32:12;31.85;;;23.92;;
26600;SDS011;14241;49.260;10.496;2022-08-19T04:34:40;30.85;;;24.90;;
26600;SDS011;14241;49.260;10.496;2022-08-19T04:37:05;32.58;;;24.42;;
26600;SDS011;14241;49.260;10.496;2022-08-19T04:39:36;29.98;;;24.38;;
26600;SDS011;14241;49.260;10.496;2022-08-19T04:42:21;30.38;;;24.35;;
26600;SDS011;14241;49.260;10.496;2022-08-19T04:45:05;29.90;;;24.48;;
26600;SDS011;14241;49.260;10.496;2022-08-19T04:47:30;31.45;;;25.08;;
26600;SDS011;14241;49.260;10.496;2022-08-19T04:49:57;32.20;;;25.58;;
26600;SDS011;14241;49.260;10.496;2022-08-19T04:52:23;32.85;;;25.58;;
26600;SDS011;14241;49.260;10.496;2022-08-19T04:54:48;32.85;;;25.83;;
26600;SDS011;14241;49.260;10.496;2022-08-19T04:57:14;30.25;;;24.23;;
26600;SDS011;14241;49.260;10.496;2022-08-19T04:59:39;30.85;;;24.38;;
26600;SDS011;14241;49.260;10.496;2022-08-19T05:02:04;29.97;;;24.07;;
26600;SDS011;14241;49.260;10.496;2022-08-19T05:04:31;34.50;;;25.98;;
26600;SDS011;14241;49.260;10.496;2022-08-19T05:06:58;33.80;;;25.05;;
26600;SDS011;14241;49.260;10.496;2022-08-19T05:09:24;31.67;;;25.38;;
26600;SDS011;14241;49.260;10.496;2022-08-19T05:11:49;30.77;;;25.07;;
26600;SDS011;14241;49.260;10.496;2022-08-19T05:14:18;31.83;;;24.17;;
26600;SDS011;14241;49.260;10.496;2022-08-19T05:16:44;31.33;;;24.65;;
26600;SDS011;14241;49.260;10.496;2022-08-19T05:19:10;31.38;;;24.85;;
26600;SDS011;14241;49.260;10.496;2022-08-19T05:21:53;32.70;;;25.33;;
26600;SDS011;14241;49.260;10.496;2022-08-19T05:24:37;32.95;;;25.20;;
26600;SDS011;14241;49.260;10.496;2022-08-19T05:27:03;35.25;;;26.23;;
26600;SDS011;14241;49.260;10.496;2022-08-19T05:29:30;33.33;;;25.95;;
26600;SDS011;14241;49.260;10.496;2022-08-19T05:31:57;30.65;;;24.58;;
26600;SDS011;14241;49.260;10.496;2022-08-19T05:34:23;33.03;;;25.98;;
26600;SDS011;14241;49.260;10.496;2022-08-19T05:36:53;30.95;;;25.83;;
26600;SDS011;14241;49.260;10.496;2022-08-19T05:39:21;31.88;;;25.23;;
26600;SDS011;14241;49.260;10.496;2022-08-19T05:41:47;32.08;;;26.40;;
26600;SDS011;14241;49.260;10.496;2022-08-19T05:44:13;30.50;;;23.85;;
26600;SDS011;14241;49.260;10.496;2022-08-19T05:46:39;31.35;;;25.10;;
26600;SDS011;14241;49.260;10.496;2022-08-19T05:49:05;29.80;;;24.27;;
26600;SDS011;14241;49.260;10.496;2022-08-19T05:51:30;32.10;;;23.90;;
26600;SDS011;14241;49.260;10.496;2022-08-19T05:53:57;30.58;;;25.13;;
26600;SDS011;14241;49.260;10.496;2022-08-19T05:56:22;33.42;;;26.08;;
26600;SDS011;14241;49.260;10.496;2022-08-19T05:58:48;33.15;;;25.45;;
26600;SDS011;14241;49.260;10.496;2022-08-19T06:01:15;30.02;;;24.67;;
26600;SDS011;14241;49.260;10.496;2022-08-19T06:03:40;32.92;;;24.98;;
26600;SDS011;14241;49.260;10.496;2022-08-19T06:06:07;32.97;;;25.03;;
26600;SDS011;14241;49.260;10.496;2022-08-19T06:08:33;34.28;;;25.17;;
26600;SDS011;14241;49.260;10.496;2022-08-19T06:10:58;30.73;;;23.65;;
26600;SDS011;14241;49.260;10.496;2022-08-19T06:13:36;30.30;;;23.63;;
26600;SDS011;14241;49.260;10.496;2022-08-19T06:16:01;30.23;;;24.00;;
26600;SDS011;14241;49.260;10.496;2022-08-19T06:18:26;31.33;;;23.98;;
26600;SDS011;14241;49.260;10.496;2022-08-19T06:20:52;30.17;;;23.83;;
26600;SDS011;14241;49.260;10.496;2022-08-19T06:23:18;28.27;;;22.65;;
26600;SDS011;14241;49.260;10.496;2022-08-19T06:25:45;29.95;;;23.38;;
26600;SDS011;14241;49.260;10.496;2022-08-19T06:28:11;29.65;;;24.30;;
26600;SDS011;14241;49.260;10.496;2022-08-19T06:30:37;31.83;;;24.05;;
26600;SDS011;14241;49.260;10.496;2022-08-19T06:33:02;30.17;;;24.37;;
26600;SDS011;14241;49.260;10.496;2022-08-19T06:35:27;28.23;;;23.87;;
26600;SDS011;14241;49.260;10.496;2022-08-19T06:37:54;30.02;;;24.05;;
26600;SDS011;14241;49.260;10.496;2022-08-19T06:40:20;30.00;;;23.40;;
26600;SDS011;14241;49.260;10.496;2022-08-19T06:42:45;31.33;;;24.80;;
26600;SDS011;14241;49.260;10.496;2022-08-19T06:45:10;30.77;;;23.25;;
26600;SDS011;14241;49.260;10.496;2022-08-19T06:47:36;27.67;;;23.25;;
26600;SDS011;14241;49.260;10.496;2022-08-19T06:50:02;30.33;;;23.55;;
26600;SDS011;14241;49.260;10.496;2022-08-19T06:52:32;29.27;;;23.88;;
26600;SDS011;14241;49.260;10.496;2022-08-19T06:54:58;29.60;;;23.88;;
26600;SDS011;14241;49.260;10.496;2022-08-19T06:57:24;27.55;;;22.35;;
26600;SDS011;14241;49.260;10.496;2022-08-19T06:59:49;29.52;;;23.40;;
26600;SDS011;14241;49.260;10.496;2022-08-19T07:02:14;27.17;;;22.17;;
26600;SDS011;14241;49.260;10.496;2022-08-19T07:04:40;25.88;;;21.77;;
26600;SDS011;14241;49.260;10.496;2022-08-19T07:07:07;29.73;;;22.17;;
26600;SDS011;14241;49.260;10.496;2022-08-19T07:09:35;30.20;;;21.77;;
26600;SDS011;14241;49.260;10.496;2022-08-19T07:12:02;28.08;;;21.45;;
26600;SDS011;14241;49.260;10.496;2022-08-19T07:14:28;27.15;;;21.27;;
26600;SDS011;14241;49.260;10.496;2022-08-19T07:16:54;26.63;;;20.48;;
26600;SDS011;14241;49.260;10.496;2022-08-19T07:19:20;24.02;;;19.95;;
26600;SDS011;14241;49.260;10.496;2022-08-19T07:21:47;25.98;;;21.67;;
26600;SDS011;14241;49.260;10.496;2022-08-19T07:24:12;27.75;;;21.67;;
26600;SDS011;14241;49.260;10.496;2022-08-19T07:26:39;26.83;;;20.95;;
26600;SDS011;14241;49.260;10.496;2022-08-19T07:29:05;28.90;;;20.58;;
26600;SDS011;14241;49.260;10.496;2022-08-19T07:31:31;28.90;;;22.23;;
26600;SDS011;14241;49.260;10.496;2022-08-19T07:34:01;27.75;;;19.30;;
26600;SDS011;14241;49.260;10.496;2022-08-19T07:36:27;24.30;;;20.37;;
26600;SDS011;14241;49.260;10.496;2022-08-19T07:38:57;27.92;;;20.50;;
26600;SDS011;14241;49.260;10.496;2022-08-19T07:41:24;22.23;;;19.55;;
26600;SDS011;14241;49.260;10.496;2022-08-19T07:43:49;28.05;;;21.10;;
26600;SDS011;14241;49.260;10.496;2022-08-19T07:46:15;26.42;;;19.98;;
26600;SDS011;14241;49.260;10.496;2022-08-19T07:48:41;25.65;;;20.27;;
26600;SDS011;14241;49.260;10.496;2022-08-19T07:51:07;24.95;;;20.40;;
26600;SDS011;14241;49.260;10.496;2022-08-19T07:53:33;23.65;;;18.77;;
26600;SDS011;14241;49.260;10.496;2022-08-19T07:55:59;25.45;;;19.58;;
26600;SDS011;14241;49.260;10.496;2022-08-19T07:58:29;26.80;;;20.92;;
26600;SDS011;14241;49.260;10.496;2022-08-19T08:00:55;25.85;;;19.58;;
26600;SDS011;14241;49.260;10.496;2022-08-19T08:03:21;27.70;;;20.20;;
26600;SDS011;14241;49.260;10.496;2022-08-19T08:06:07;24.35;;;18.95;;
26600;SDS011;14241;49.260;10.496;2022-08-19T08:08:50;22.23;;;19.58;;
26600;SDS011;14241;49.260;10.496;2022-08-19T08:11:34;23.67;;;19.55;;
26600;SDS011;14241;49.260;10.496;2022-08-19T08:13:59;23.03;;;18.37;;
26600;SDS011;14241;49.260;10.496;2022-08-19T08:16:25;22.33;;;19.52;;
26600;SDS011;14241;49.260;10.496;2022-08-19T08:18:55;24.48;;;18.85;;
26600;SDS011;14241;49.260;10.496;2022-08-19T08:21:20;25.33;;;19.35;;
26600;SDS011;14241;49.260;10.496;2022-08-19T08:23:45;21.92;;;17.50;;
26600;SDS011;14241;49.260;10.496;2022-08-19T08:26:10;23.63;;;19.90;;
26600;SDS011;14241;49.260;10.496;2022-08-19T08:28:38;27.20;;;20.80;;
26600;SDS011;14241;49.260;10.496;2022-08-19T08:31:03;23.83;;;19.27;;
26600;SDS011;14241;49.260;10.496;2022-08-19T08:33:29;24.58;;;19.02;;
26600;SDS011;14241;49.260;10.496;2022-08-19T08:35:55;24.70;;;19.63;;
26600;SDS011;14241;49.260;10.496;2022-08-19T08:38:20;24.10;;;19.60;;
26600;SDS011;14241;49.260;10.496;2022-08-19T08:40:57;23.87;;;19.83;;
26600;SDS011;14241;49.260;10.496;2022-08-19T08:46:01;23.27;;;20.00;;
26600;SDS011;14241;49.260;10.496;2022-08-19T08:50:58;22.63;;;18.17;;
26600;SDS011;14241;49.260;10.496;2022-08-19T08:53:24;27.83;;;20.00;;
26600;SDS011;14241;49.260;10.496;2022-08-19T08:55:50;24.67;;;19.42;;
26600;SDS011;14241;49.260;10.496;2022-08-19T08:58:58;25.95;;;21.58;;
26600;SDS011;14241;49.260;10.496;2022-08-19T09:01:08;25.83;;;18.98;;
26600;SDS011;14241;49.260;10.496;2022-08-19T09:03:34;24.48;;;18.95;;
26600;SDS011;14241;49.260;10.496;2022-08-19T09:06:03;26.55;;;20.55;;
26600;SDS011;14241;49.260;10.496;2022-08-19T09:11:17;25.38;;;20.35;;
26600;SDS011;14241;49.260;10.496;2022-08-19T09:13:48;23.45;;;20.00;;
26600;SDS011;14241;49.260;10.496;2022-08-19T09:16:19;27.33;;;19.60;;
26600;SDS011;14241;49.260;10.496;2022-08-19T09:18:50;24.77;;;20.15;;
26600;SDS011;14241;49.260;10.496;2022-08-19T09:21:18;25.75;;;20.33;;
26600;SDS011;14241;49.260;10.496;2022-08-19T09:23:43;26.10;;;21.23;;
26600;SDS011;14241;49.260;10.496;2022-08-19T09:26:13;24.33;;;21.15;;
26600;SDS011;14241;49.260;10.496;2022-08-19T09:28:43;28.23;;;21.23;;
26600;SDS011;14241;49.260;10.496;2022-08-19T09:31:09;24.65;;;19.65;;
26600;SDS011;14241;49.260;10.496;2022-08-19T09:33:35;26.20;;;20.90;;
26600;SDS011;14241;49.260;10.496;2022-08-19T09:36:02;24.35;;;20.40;;
26600;SDS011;14241;49.260;10.496;2022-08-19T09:38:28;25.52;;;20.15;;
26600;SDS011;14241;49.260;10.496;2022-08-19T09:40:53;25.48;;;18.77;;
26600;SDS011;14241;49.260;10.496;2022-08-19T09:43:18;24.70;;;20.92;;
26600;SDS011;14241;49.260;10.496;2022-08-19T09:45:44;22.63;;;19.10;;
26600;SDS011;14241;49.260;10.496;2022-08-19T09:48:09;26.23;;;18.90;;
26600;SDS011;14241;49.260;10.496;2022-08-19T09:50:34;23.93;;;18.23;;
26600;SDS011;14241;49.260;10.496;2022-08-19T09:53:00;24.38;;;18.27;;
26600;SDS011;14241;49.260;10.496;2022-08-19T09:55:25;23.33;;;18.40;;
26600;SDS011;14241;49.260;10.496;2022-08-19T09:57:53;25.85;;;20.40;;
26600;SDS011;14241;49.260;10.496;2022-08-19T10:00:18;22.15;;;17.17;;
26600;SDS011;14241;49.260;10.496;2022-08-19T10:02:43;22.98;;;18.13;;
26600;SDS011;14241;49.260;10.496;2022-08-19T10:05:08;20.02;;;17.02;;
26600;SDS011;14241;49.260;10.496;2022-08-19T10:07:52;21.15;;;17.73;;
26600;SDS011;14241;49.260;10.496;2022-08-19T10:10:17;20.77;;;17.50;;
26600;SDS011;14241;49.260;10.496;2022-08-19T10:12:43;20.73;;;17.73;;
26600;SDS011;14241;49.260;10.496;2022-08-19T10:15:12;20.17;;;17.38;;
26600;SDS011;14241;49.260;10.496;2022-08-19T10:17:38;19.25;;;16.17;;
26600;SDS011;14241;49.260;10.496;2022-08-19T10:20:03;23.75;;;18.33;;
26600;SDS011;14241;49.260;10.496;2022-08-19T10:22:29;23.85;;;17.27;;
26600;SDS011;14241;49.260;10.496;2022-08-19T10:24:54;20.77;;;17.10;;
26600;SDS011;14241;49.260;10.496;2022-08-19T10:27:20;22.90;;;18.63;;
26600;SDS011;14241;49.260;10.496;2022-08-19T10:29:45;21.90;;;18.38;;
26600;SDS011;14241;49.260;10.496;2022-08-19T10:32:12;20.75;;;17.65;;
26600;SDS011;14241;49.260;10.496;2022-08-19T10:34:38;21.30;;;17.95;;
26600;SDS011;14241;49.260;10.496;2022-08-19T10:37:04;22.20;;;16.90;;
26600;SDS011;14241;49.260;10.496;2022-08-19T10:39:31;21.42;;;18.88;;
26600;SDS011;14241;49.260;10.496;2022-08-19T10:41:56;22.73;;;17.55;;
26600;SDS011;14241;49.260;10.496;2022-08-19T10:44:22;23.40;;;18.02;;
26600;SDS011;14241;49.260;10.496;2022-08-19T10:46:48;25.23;;;19.50;;
26600;SDS011;14241;49.260;10.496;2022-08-19T10:49:14;23.48;;;18.55;;
26600;SDS011;14241;49.260;10.496;2022-08-19T10:51:39;23.52;;;18.23;;
26600;SDS011;14241;49.260;10.496;2022-08-19T10:54:24;19.83;;;16.85;;
26600;SDS011;14241;49.260;10.496;2022-08-19T10:57:09;22.88;;;17.25;;
26600;SDS011;14241;49.260;10.496;2022-08-19T10:59:34;21.98;;;17.63;;
26600;SDS011;14241;49.260;10.496;2022-08-19T11:02:00;19.30;;;16.30;;
26600;SDS011;14241;49.260;10.496;2022-08-19T11:04:26;23.00;;;18.75;;
26600;SDS011;14241;49.260;10.496;2022-08-19T11:06:51;21.48;;;17.88;;
26600;SDS011;14241;49.260;10.496;2022-08-19T11:09:23;18.10;;;15.68;;
26600;SDS011;14241;49.260;10.496;2022-08-19T11:11:55;19.77;;;17.52;;
26600;SDS011;14241;49.260;10.496;2022-08-19T11:14:21;20.85;;;16.75;;
26600;SDS011;14241;49.260;10.496;2022-08-19T11:16:47;22.88;;;16.95;;
26600;SDS011;14241;49.260;10.496;2022-08-19T11:19:13;20.88;;;17.33;;
26600;SDS011;14241;49.260;10.496;2022-08-19T11:21:42;23.05;;;18.98;;
26600;SDS011;14241;49.260;10.496;2022-08-19T11:24:08;20.90;;;17.45;;
26600;SDS011;14241;49.260;10.496;2022-08-19T11:26:35;17.48;;;15.68;;
26600;SDS011;14241;49.260;10.496;2022-08-19T11:29:02;20.50;;;17.08;;
26600;SDS011;14241;49.260;10.496;2022-08-19T11:31:29;21.80;;;18.15;;
26600;SDS011;14241;49.260;10.496;2022-08-19T11:33:59;23.90;;;17.35;;
26600;SDS011;14241;49.260;10.496;2022-08-19T11:36:27;19.45;;;17.20;;
26600;SDS011;14241;49.260;10.496;2022-08-19T11:38:53;18.98;;;15.95;;
26600;SDS011;14241;49.260;10.496;2022-08-19T11:41:19;18.55;;;16.52;;
26600;SDS011;14241;49.260;10.496;2022-08-19T11:43:44;19.75;;;17.58;;
26600;SDS011;14241;49.260;10.496;2022-08-19T11:46:10;21.07;;;17.47;;
26600;SDS011;14241;49.260;10.496;2022-08-19T11:48:37;20.77;;;18.30;;
26600;SDS011;14241;49.260;10.496;2022-08-19T11:51:03;21.35;;;17.83;;
26600;SDS011;14241;49.260;10.496;2022-08-19T11:53:31;22.83;;;17.95;;
26600;SDS011;14241;49.260;10.496;2022-08-19T11:55:57;20.88;;;17.77;;
26600;SDS011;14241;49.260;10.496;2022-08-19T11:58:22;19.90;;;17.67;;
26600;SDS011;14241;49.260;10.496;2022-08-19T12:00:48;21.13;;;17.33;;
26600;SDS011;14241;49.260;10.496;2022-08-19T12:03:13;21.27;;;17.70;;
26600;SDS011;14241;49.260;10.496;2022-08-19T12:05:39;18.58;;;16.48;;
26600;SDS011;14241;49.260;10.496;2022-08-19T12:08:05;18.27;;;15.35;;
26600;SDS011;14241;49.260;10.496;2022-08-19T12:10:30;18.08;;;15.98;;
26600;SDS011;14241;49.260;10.496;2022-08-19T12:12:56;22.42;;;15.30;;
26600;SDS011;14241;49.260;10.496;2022-08-19T12:15:21;16.88;;;15.18;;
26600;SDS011;14241;49.260;10.496;2022-08-19T12:17:46;17.77;;;15.18;;
26600;SDS011;14241;49.260;10.496;2022-08-19T12:20:12;16.87;;;15.03;;
26600;SDS011;14241;49.260;10.496;2022-08-19T12:22:39;16.48;;;14.77;;
26600;SDS011;14241;49.260;10.496;2022-08-19T12:25:06;16.15;;;14.40;;
26600;SDS011;14241;49.260;10.496;2022-08-19T12:27:32;16.23;;;14.30;;
26600;SDS011;14241;49.260;10.496;2022-08-19T12:29:57;15.15;;;13.65;;
26600;SDS011;14241;49.260;10.496;2022-08-19T12:32:23;15.30;;;13.80;;
26600;SDS011;14241;49.260;10.496;2022-08-19T12:34:49;16.48;;;14.77;;
26600;SDS011;14241;49.260;10.496;2022-08-19T12:37:15;15.23;;;13.65;;
26600;SDS011;14241;49.260;10.496;2022-08-19T12:39:41;14.10;;;12.70;;
26600;SDS011;14241;49.260;10.496;2022-08-19T12:42:07;14.55;;;12.85;;
26600;SDS011;14241;49.260;10.496;2022-08-19T12:44:34;15.55;;;13.93;;
26600;SDS011;14241;49.260;10.496;2022-08-19T12:47:00;16.50;;;12.77;;
26600;SDS011;14241;49.260;10.496;2022-08-19T12:49:27;14.07;;;12.63;;
26600;SDS011;14241;49.260;10.496;2022-08-19T12:51:52;13.93;;;12.52;;
26600;SDS011;14241;49.260;10.496;2022-08-19T12:54:17;14.07;;;12.67;;
26600;SDS011;14241;49.260;10.496;2022-08-19T12:56:42;13.13;;;11.68;;
26600;SDS011;14241;49.260;10.496;2022-08-19T12:59:09;13.38;;;12.07;;
26600;SDS011;14241;49.260;10.496;2022-08-19T13:01:36;16.75;;;12.55;;
26600;SDS011;14241;49.260;10.496;2022-08-19T13:04:01;12.75;;;11.20;;
26600;SDS011;14241;49.260;10.496;2022-08-19T13:06:26;13.60;;;11.13;;
26600;SDS011;14241;49.260;10.496;2022-08-19T13:08:52;14.85;;;12.48;;
26600;SDS011;14241;49.260;10.496;2022-08-19T13:11:18;16.02;;;11.98;;
26600;SDS011;14241;49.260;10.496;2022-08-19T13:13:44;13.60;;;11.40;;
26600;SDS011;14241;49.260;10.496;2022-08-19T13:16:11;14.55;;;11.45;;
26600;SDS011;14241;49.260;10.496;2022-08-19T13:18:37;12.20;;;10.95;;
26600;SDS011;14241;49.260;10.496;2022-08-19T13:21:03;16.70;;;10.38;;
26600;SDS011;14241;49.260;10.496;2022-08-19T13:23:29;12.73;;;11.38;;
26600;SDS011;14241;49.260;10.496;2022-08-19T13:25:56;12.35;;;11.15;;
26600;SDS011;14241;49.260;10.496;2022-08-19T13:28:21;13.52;;;10.82;;
26600;SDS011;14241;49.260;10.496;2022-08-19T13:30:47;12.27;;;10.70;;
26600;SDS011;14241;49.260;10.496;2022-08-19T13:33:31;11.20;;;10.20;;
26600;SDS011;14241;49.260;10.496;2022-08-19T13:35:58;10.45;;;9.45;;
26600;SDS011;14241;49.260;10.496;2022-08-19T13:38:25;11.30;;;10.20;;
26600;SDS011;14241;49.260;10.496;2022-08-19T13:40:51;10.52;;;9.50;;
26600;SDS011;14241;49.260;10.496;2022-08-19T13:43:18;11.18;;;9.73;;
26600;SDS011;14241;49.260;10.496;2022-08-19T13:45:43;9.80;;;8.90;;
26600;SDS011;14241;49.260;10.496;2022-08-19T13:48:09;9.70;;;8.68;;
26600;SDS011;14241;49.260;10.496;2022-08-19T13:50:39;9.70;;;8.57;;
26600;SDS011;14241;49.260;10.496;2022-08-19T13:53:06;9.82;;;8.63;;
26600;SDS011;14241;49.260;10.496;2022-08-19T13:55:32;12.75;;;8.85;;
26600;SDS011;14241;49.260;10.496;2022-08-19T13:57:58;12.10;;;9.50;;
26600;SDS011;14241;49.260;10.496;2022-08-19T14:00:25;10.05;;;9.05;;
26600;SDS011;14241;49.260;10.496;2022-08-19T14:02:51;11.95;;;9.18;;
26600;SDS011;14241;49.260;10.496;2022-08-19T14:05:17;11.52;;;10.20;;
26600;SDS011;14241;49.260;10.496;2022-08-19T14:07:43;11.70;;;9.68;;
26600;SDS011;14241;49.260;10.496;2022-08-19T14:10:09;10.57;;;9.47;;
26600;SDS011;14241;49.260;10.496;2022-08-19T14:12:35;12.18;;;9.25;;
26600;SDS011;14241;49.260;10.496;2022-08-19T14:15:00;10.88;;;8.68;;